Time;durP1;ratioP1;P1;durP2;ratioP2;P2;SDS_P1;SDS_P2;PMS_P1;PMS_P2;Temp;Humidity;BMP_temperature;BMP_pressure;BME280_temperature;BME280_humidity;BME280_pressure;Samples;Min_cycle;Max_cycle;Signal;HPM_P1;HPM_P2
2022/07/08 00:01:59;;;;;;;0.70;0.70;;;16.10;71.70;;;;;;5011009;28;20018;-74
2022/07/08 00:04:25;;;;;;;0.90;0.75;;;16.10;71.70;;;;;;5010999;28;20378;-73
2022/07/08 00:06:51;;;;;;;1.40;0.60;;;16.10;71.60;;;;;;5010940;28;20026;-73
2022/07/08 00:09:16;;;;;;;1.60;1.00;;;16.10;71.60;;;;;;5010687;28;20049;-74
2022/07/08 00:11:42;;;;;;;4.05;1.10;;;16.10;71.70;;;;;;5010752;28;20037;-74
2022/07/08 00:14:09;;;;;;;3.60;1.10;;;16.00;72.00;;;;;;5010432;28;20402;-73
2022/07/08 00:16:38;;;;;;;2.20;1.00;;;15.90;72.30;;;;;;5010724;28;20022;-74
2022/07/08 00:19:04;;;;;;;2.13;0.85;;;16.00;72.30;;;;;;5010536;28;20040;-74
2022/07/08 00:21:29;;;;;;;1.30;0.98;;;15.90;72.30;;;;;;5009317;28;20026;-74
2022/07/08 00:23:55;;;;;;;1.00;0.90;;;15.90;72.70;;;;;;5010530;28;20026;-74
2022/07/08 00:26:21;;;;;;;1.05;0.80;;;15.90;72.80;;;;;;5010644;28;20079;-74
2022/07/08 00:28:46;;;;;;;0.68;0.68;;;15.80;72.60;;;;;;5010524;28;20022;-73
2022/07/08 00:31:12;;;;;;;0.93;0.80;;;15.90;72.70;;;;;;5010287;28;20119;-73
2022/07/08 00:33:37;;;;;;;1.80;0.70;;;15.90;72.70;;;;;;5010313;28;20520;-73
2022/07/08 00:36:03;;;;;;;0.93;0.70;;;16.00;72.50;;;;;;5010544;28;20429;-74
2022/07/08 00:38:29;;;;;;;1.17;0.80;;;16.00;72.40;;;;;;5010471;28;20514;-74
2022/07/08 00:40:54;;;;;;;0.60;0.60;;;16.00;72.40;;;;;;5010369;28;20026;-74
2022/07/08 00:43:44;;;;;;;0.40;0.40;;;16.10;72.50;;;;;;5010409;28;20106;-74
2022/07/08 00:46:14;;;;;;;0.65;0.65;;;16.10;72.30;;;;;;5010636;28;20052;-73
2022/07/08 00:48:40;;;;;;;0.95;0.70;;;16.10;72.10;;;;;;5010225;28;20030;-74
2022/07/08 00:51:08;;;;;;;1.40;0.98;;;16.10;72.10;;;;;;5010260;28;20022;-74
2022/07/08 00:53:35;;;;;;;0.73;0.60;;;16.10;72.10;;;;;;5010081;28;20026;-75
2022/07/08 00:56:01;;;;;;;2.28;0.95;;;16.10;72.00;;;;;;5010182;28;20486;-75
2022/07/08 00:58:27;;;;;;;2.25;0.70;;;16.20;72.00;;;;;;5010066;28;20025;-75
2022/07/08 01:00:53;;;;;;;1.02;0.65;;;16.20;72.00;;;;;;5010134;28;20074;-74
2022/07/08 01:03:19;;;;;;;1.88;0.80;;;16.20;71.90;;;;;;5009245;28;20034;-74
2022/07/08 01:05:45;;;;;;;3.13;1.00;;;16.20;71.90;;;;;;5010111;28;20023;-74
2022/07/08 01:08:12;;;;;;;1.70;1.00;;;16.10;72.20;;;;;;5010001;28;20133;-74
2022/07/08 01:10:38;;;;;;;2.13;0.85;;;16.10;72.20;;;;;;5010092;28;20018;-74
2022/07/08 01:13:04;;;;;;;2.53;0.80;;;16.00;72.20;;;;;;5009992;28;20078;-74
2022/07/08 01:15:30;;;;;;;1.48;1.00;;;16.00;72.50;;;;;;5010060;28;20044;-75
2022/07/08 01:17:56;;;;;;;1.38;0.73;;;15.90;72.80;;;;;;5009893;28;20030;-74
2022/07/08 01:20:21;;;;;;;1.80;0.98;;;15.90;72.80;;;;;;5009980;28;20037;-74
2022/07/08 01:22:47;;;;;;;1.55;1.00;;;15.80;73.00;;;;;;5009981;28;20026;-75
2022/07/08 01:25:13;;;;;;;0.90;0.90;;;15.80;73.10;;;;;;5009930;28;20018;-74
2022/07/08 01:27:38;;;;;;;3.00;1.00;;;15.80;73.20;;;;;;5009688;28;20109;-74
2022/07/08 01:30:05;;;;;;;2.15;1.08;;;15.90;73.20;;;;;;5009763;28;20475;-74
2022/07/08 01:32:38;;;;;;;1.92;0.90;;;15.70;73.70;;;;;;5009918;28;20030;-74
2022/07/08 01:35:04;;;;;;;1.80;1.13;;;15.80;73.70;;;;;;5009515;28;20466;-74
2022/07/08 01:37:30;;;;;;;9.30;2.05;;;15.80;73.30;;;;;;5009647;28;20033;-74
2022/07/08 01:39:56;;;;;;;11.48;2.83;;;15.70;71.50;;;;;;5009746;28;20030;-73
2022/07/08 01:42:22;;;;;;;9.55;2.60;;;15.40;70.00;;;;;;5009753;28;20025;-74
2022/07/08 01:44:48;;;;;;;10.10;2.60;;;15.30;70.90;;;;;;5008349;28;20391;-73
2022/07/08 01:47:13;;;;;;;7.20;2.35;;;15.20;70.90;;;;;;5009580;28;20482;-74
2022/07/08 01:49:39;;;;;;;7.68;1.65;;;15.20;70.90;;;;;;5009582;28;20045;-74
2022/07/08 01:52:06;;;;;;;9.48;2.20;;;15.20;70.70;;;;;;5009563;28;20050;-73
2022/07/08 01:54:32;;;;;;;9.82;2.33;;;15.30;70.40;;;;;;5010221;28;20054;-74
2022/07/08 01:57:15;;;;;;;10.23;2.30;;;15.30;70.40;;;;;;5012930;28;20163;-74
2022/07/08 01:59:46;;;;;;;6.43;1.98;;;15.40;70.20;;;;;;5013081;28;20037;-74
2022/07/08 02:02:12;;;;;;;9.50;1.85;;;15.40;69.70;;;;;;5012530;28;20030;-74
2022/07/08 02:04:39;;;;;;;10.73;2.20;;;15.40;69.60;;;;;;5012668;28;20402;-77
2022/07/08 02:07:04;;;;;;;11.02;2.53;;;15.20;69.20;;;;;;5012812;28;20018;-77
2022/07/08 02:09:30;;;;;;;11.80;2.17;;;15.20;69.70;;;;;;5012676;28;20029;-76
2022/07/08 02:14:41;;;;;;;10.65;2.17;;;14.90;69.10;;;;;;5012822;28;20450;-76
2022/07/08 02:17:07;;;;;;;13.02;2.95;;;14.90;69.10;;;;;;5012617;28;20030;-76
2022/07/08 02:19:33;;;;;;;10.57;2.42;;;14.80;68.80;;;;;;5012615;28;20022;-76
2022/07/08 02:21:59;;;;;;;13.50;2.72;;;14.70;68.10;;;;;;5012559;28;20506;-76
2022/07/08 02:24:25;;;;;;;11.10;2.75;;;14.70;67.10;;;;;;5012608;28;20086;-76
2022/07/08 02:26:51;;;;;;;9.70;3.05;;;14.80;66.10;;;;;;5012583;28;20418;-76
2022/07/08 02:29:17;;;;;;;9.40;3.05;;;14.80;65.80;;;;;;5012155;28;20050;-76
2022/07/08 02:31:42;;;;;;;7.72;2.78;;;14.70;64.50;;;;;;5012324;28;20104;-77
2022/07/08 02:34:08;;;;;;;8.77;2.90;;;14.80;64.00;;;;;;5012438;28;20122;-77
2022/07/08 02:36:33;;;;;;;13.32;3.03;;;14.80;63.30;;;;;;5012441;28;20374;-76
2022/07/08 02:38:59;;;;;;;11.38;2.78;;;14.70;62.70;;;;;;5012397;28;20062;-76
2022/07/08 02:41:24;;;;;;;11.82;3.83;;;14.70;62.60;;;;;;5012361;28;20478;-77
2022/07/08 02:43:50;;;;;;;10.95;3.33;;;14.70;62.80;;;;;;5012422;28;20068;-75
2022/07/08 02:46:15;;;;;;;12.60;2.90;;;14.70;62.90;;;;;;5012249;28;20030;-74
2022/07/08 02:48:41;;;;;;;12.65;2.75;;;14.60;63.50;;;;;;5010675;28;20113;-76
2022/07/08 02:51:07;;;;;;;11.70;3.20;;;14.60;62.90;;;;;;5012274;28;20022;-76
2022/07/08 02:53:32;;;;;;;12.50;2.75;;;14.50;63.30;;;;;;5011977;28;20125;-76
2022/07/08 02:55:58;;;;;;;11.85;2.92;;;14.40;63.10;;;;;;5011935;28;20131;-76
2022/07/08 02:58:23;;;;;;;12.43;2.63;;;14.40;63.20;;;;;;5012020;28;20454;-76
2022/07/08 03:00:49;;;;;;;9.25;2.80;;;14.40;63.30;;;;;;5012119;28;20045;-75
2022/07/08 03:03:15;;;;;;;14.80;3.15;;;14.40;63.50;;;;;;5012081;28;20025;-76
2022/07/08 03:05:40;;;;;;;11.15;2.95;;;14.30;64.20;;;;;;5010985;28;20022;-75
2022/07/08 03:08:06;;;;;;;13.32;3.10;;;14.20;64.30;;;;;;5011703;28;20033;-74
2022/07/08 03:10:32;;;;;;;7.68;2.80;;;14.20;64.80;;;;;;5011959;28;20032;-75
2022/07/08 03:12:58;;;;;;;11.55;3.08;;;14.20;65.00;;;;;;5011448;28;20022;-76
2022/07/08 03:15:24;;;;;;;11.30;3.55;;;14.20;65.30;;;;;;5011627;28;20101;-76
2022/07/08 03:17:50;;;;;;;12.25;3.17;;;14.20;64.90;;;;;;5011807;28;20025;-76
2022/07/08 03:20:15;;;;;;;6.18;2.20;;;14.20;65.00;;;;;;5011589;28;20025;-76
2022/07/08 03:22:41;;;;;;;9.43;3.25;;;14.20;65.10;;;;;;5010295;28;20041;-74
2022/07/08 03:25:07;;;;;;;8.23;2.60;;;14.20;64.60;;;;;;5011507;28;20040;-76
2022/07/08 03:27:32;;;;;;;13.90;3.28;;;14.10;64.80;;;;;;5011501;28;20034;-74
2022/07/08 03:29:58;;;;;;;11.45;3.30;;;14.20;64.70;;;;;;5011365;28;20056;-74
2022/07/08 03:32:23;;;;;;;12.40;3.60;;;14.10;64.90;;;;;;5011356;28;20100;-76
2022/07/08 03:34:49;;;;;;;8.10;2.78;;;14.00;65.10;;;;;;5011275;28;20094;-74
2022/07/08 03:37:15;;;;;;;9.27;2.58;;;14.00;65.20;;;;;;5011515;28;20054;-76
2022/07/08 03:39:41;;;;;;;12.07;3.03;;;13.90;65.30;;;;;;5011298;28;20076;-75
2022/07/08 03:42:07;;;;;;;12.35;2.65;;;13.80;65.60;;;;;;5011260;28;20022;-76
2022/07/08 03:44:32;;;;;;;11.00;3.28;;;13.80;65.90;;;;;;5011435;28;20389;-74
2022/07/08 03:46:58;;;;;;;9.90;3.00;;;13.70;66.30;;;;;;5011196;28;20026;-76
2022/07/08 03:49:23;;;;;;;9.35;2.17;;;13.60;66.20;;;;;;5011054;28;20022;-76
2022/07/08 03:51:49;;;;;;;7.20;2.80;;;13.60;66.40;;;;;;5011037;28;20034;-76
2022/07/08 03:54:14;;;;;;;9.55;2.70;;;13.60;66.70;;;;;;5011191;28;20100;-76
2022/07/08 03:56:40;;;;;;;6.28;2.47;;;13.50;66.90;;;;;;5010975;28;20469;-76
2022/07/08 03:59:08;;;;;;;8.55;2.40;;;13.60;66.80;;;;;;5010996;28;20053;-75
2022/07/08 04:01:34;;;;;;;8.10;2.72;;;13.70;66.50;;;;;;5011032;28;20033;-75
2022/07/08 04:04:00;;;;;;;10.30;2.65;;;13.70;66.30;;;;;;5011086;28;20030;-74
2022/07/08 04:06:25;;;;;;;11.13;2.83;;;13.80;66.00;;;;;;5011119;28;20103;-74
2022/07/08 04:08:51;;;;;;;9.15;2.90;;;13.90;65.70;;;;;;5010805;28;20022;-76
2022/07/08 04:11:16;;;;;;;11.10;3.00;;;14.00;65.40;;;;;;5011038;28;20083;-74
2022/07/08 04:13:42;;;;;;;10.23;2.60;;;14.10;65.30;;;;;;5010815;28;20025;-74
2022/07/08 04:16:12;;;;;;;11.60;3.17;;;14.10;65.90;;;;;;5010928;28;20033;-75
2022/07/08 04:18:38;;;;;;;6.43;2.35;;;14.20;64.80;;;;;;5010453;28;20018;-76
2022/07/08 04:21:05;;;;;;;14.85;3.05;;;14.20;64.70;;;;;;5010645;28;20033;-77
2022/07/08 04:23:31;;;;;;;12.98;2.95;;;14.30;64.60;;;;;;5010712;28;20063;-76
2022/07/08 04:25:56;;;;;;;8.43;2.72;;;14.20;64.50;;;;;;5009358;28;20022;-76
2022/07/08 04:28:22;;;;;;;8.63;2.40;;;14.30;64.30;;;;;;5010634;28;20093;-78
2022/07/08 04:30:47;;;;;;;7.85;1.83;;;14.40;64.20;;;;;;5012519;28;20506;-76
2022/07/08 04:33:13;;;;;;;7.18;2.20;;;14.40;64.00;;;;;;5011143;28;20022;-77
2022/07/08 04:35:39;;;;;;;9.32;2.17;;;14.50;63.90;;;;;;5010688;28;20131;-76
2022/07/08 04:38:04;;;;;;;11.73;2.85;;;14.60;63.50;;;;;;5010784;28;20018;-73
2022/07/08 04:40:30;;;;;;;8.48;1.88;;;14.60;63.10;;;;;;5010571;28;20086;-76
2022/07/08 04:42:56;;;;;;;6.10;2.10;;;14.70;63.10;;;;;;5009069;28;20498;-77
2022/07/08 04:45:23;;;;;;;9.88;2.53;;;14.80;62.70;;;;;;5010466;28;20037;-77
2022/07/08 04:47:49;;;;;;;9.50;2.67;;;14.90;62.30;;;;;;5010594;28;20062;-76
2022/07/08 04:50:15;;;;;;;11.02;2.78;;;14.90;61.40;;;;;;5010377;28;20129;-76
2022/07/08 04:52:40;;;;;;;10.68;2.80;;;14.90;61.70;;;;;;5010359;28;20026;-74
2022/07/08 04:55:07;;;;;;;7.78;2.70;;;14.80;61.80;;;;;;5010050;28;20038;-75
2022/07/08 04:57:32;;;;;;;7.07;2.45;;;14.80;61.60;;;;;;5010505;28;20101;-73
2022/07/08 05:00:01;;;;;;;6.00;2.38;;;14.90;61.20;;;;;;5010394;28;20054;-76
2022/07/08 05:02:27;;;;;;;14.63;3.15;;;15.00;61.10;;;;;;5008800;28;20022;-75
2022/07/08 05:04:53;;;;;;;7.68;2.45;;;14.90;61.40;;;;;;5010223;28;20056;-76
2022/07/08 05:07:19;;;;;;;10.23;2.60;;;14.90;62.00;;;;;;5010097;28;20062;-75
2022/07/08 05:09:45;;;;;;;9.15;2.20;;;14.90;62.00;;;;;;5009942;28;20030;-76
2022/07/08 05:12:10;;;;;;;12.85;3.03;;;14.90;62.00;;;;;;5010068;28;20026;-74
2022/07/08 05:14:36;;;;;;;13.23;2.88;;;14.90;62.20;;;;;;5009767;28;20034;-76
2022/07/08 05:17:02;;;;;;;14.90;2.95;;;14.90;61.80;;;;;;5009975;28;20026;-77
2022/07/08 05:19:28;;;;;;;14.88;3.40;;;14.80;62.10;;;;;;5009532;28;20038;-76
2022/07/08 05:21:53;;;;;;;17.95;3.35;;;14.70;62.70;;;;;;5009444;28;20026;-74
2022/07/08 05:24:19;;;;;;;12.30;3.17;;;14.80;62.80;;;;;;5009893;28;20163;-76
2022/07/08 05:26:44;;;;;;;12.07;3.05;;;14.80;62.70;;;;;;5009523;28;20033;-75
2022/07/08 05:29:10;;;;;;;12.98;3.35;;;14.90;62.70;;;;;;5009972;28;20040;-75
2022/07/08 05:31:35;;;;;;;9.70;2.92;;;15.10;62.00;;;;;;5014809;28;20068;-74
2022/07/08 05:34:01;;;;;;;14.38;2.80;;;15.20;61.30;;;;;;5013939;28;20046;-76
2022/07/08 05:36:27;;;;;;;16.23;2.70;;;15.30;60.90;;;;;;5012543;28;20030;-76
2022/07/08 05:38:52;;;;;;;11.27;3.05;;;15.40;60.40;;;;;;5013738;28;20086;-77
2022/07/08 05:41:18;;;;;;;9.15;2.35;;;15.40;60.20;;;;;;5012626;28;20489;-75
2022/07/08 05:43:44;;;;;;;10.38;2.78;;;15.50;60.10;;;;;;5014465;28;20026;-77
2022/07/08 05:46:09;;;;;;;10.02;2.58;;;15.60;59.90;;;;;;5014890;28;20078;-76
2022/07/08 05:48:35;;;;;;;13.30;2.88;;;15.30;60.50;;;;;;5013617;28;20041;-77
2022/07/08 05:51:00;;;;;;;14.20;3.03;;;15.40;60.50;;;;;;5013351;28;20034;-74
2022/07/08 05:53:26;;;;;;;11.60;3.08;;;15.60;60.30;;;;;;5013350;28;20049;-77
2022/07/08 05:55:51;;;;;;;9.40;2.42;;;15.60;59.50;;;;;;5013348;28;20034;-74
2022/07/08 05:58:17;;;;;;;11.77;3.15;;;15.80;59.30;;;;;;5013870;28;20081;-75
2022/07/08 06:00:43;;;;;;;11.57;2.85;;;15.70;59.40;;;;;;5013934;28;20022;-76
2022/07/08 06:03:08;;;;;;;10.20;1.88;;;15.70;59.40;;;;;;5013467;28;20079;-77
2022/07/08 06:05:34;;;;;;;9.15;2.53;;;15.80;59.30;;;;;;5012604;28;20102;-77
2022/07/08 06:08:00;;;;;;;9.70;2.90;;;15.90;59.00;;;;;;5013028;28;20385;-76
2022/07/08 06:10:28;;;;;;;12.98;3.22;;;15.70;58.80;;;;;;5013327;28;20079;-75
2022/07/08 06:12:54;;;;;;;12.70;2.47;;;15.30;60.70;;;;;;5013143;28;20030;-77
2022/07/08 06:15:21;;;;;;;8.35;2.33;;;15.40;60.90;;;;;;5013992;28;20555;-75
2022/07/08 06:17:47;;;;;;;8.07;1.98;;;15.50;60.70;;;;;;5013847;28;20022;-75
2022/07/08 06:20:14;;;;;;;9.95;2.60;;;15.70;60.40;;;;;;5013256;28;20414;-77
2022/07/08 06:22:40;;;;;;;13.15;2.60;;;15.90;59.90;;;;;;5011789;28;20018;-75
2022/07/08 06:25:06;;;;;;;7.35;1.70;;;16.00;58.50;;;;;;5013849;28;20699;-76
2022/07/08 06:27:33;;;;;;;8.65;2.50;;;16.20;58.30;;;;;;5013138;28;20037;-75
2022/07/08 06:29:58;;;;;;;7.05;2.05;;;16.40;58.10;;;;;;5013304;28;20041;-74
2022/07/08 06:32:24;;;;;;;9.20;2.90;;;16.20;58.20;;;;;;5013986;28;20052;-74
2022/07/08 06:34:50;;;;;;;7.80;2.20;;;16.10;58.80;;;;;;5012880;28;20081;-75
2022/07/08 06:37:15;;;;;;;9.82;2.75;;;16.10;59.70;;;;;;5012677;28;20018;-74
2022/07/08 06:39:41;;;;;;;9.80;2.42;;;16.10;59.80;;;;;;5013287;28;20030;-74
2022/07/08 06:42:07;;;;;;;8.90;2.28;;;16.00;59.10;;;;;;5012685;28;20030;-74
2022/07/08 06:44:33;;;;;;;8.07;2.95;;;16.10;59.10;;;;;;5013155;28;20026;-75
2022/07/08 06:46:58;;;;;;;7.65;2.30;;;16.30;58.60;;;;;;5013953;28;20030;-74
2022/07/08 06:49:24;;;;;;;12.48;2.40;;;16.20;58.40;;;;;;5012225;28;20022;-74
2022/07/08 06:51:50;;;;;;;8.38;2.67;;;16.20;58.90;;;;;;5012430;28;20026;-75
2022/07/08 06:57:00;;;;;;;10.10;2.17;;;16.50;58.30;;;;;;5012526;28;20090;-76
2022/07/08 06:59:25;;;;;;;12.45;2.70;;;16.60;57.60;;;;;;5012078;28;20435;-74
2022/07/08 07:01:52;;;;;;;11.63;2.65;;;16.40;58.10;;;;;;5012319;28;20397;-73
2022/07/08 07:04:18;;;;;;;8.32;2.40;;;16.40;58.20;;;;;;5012019;28;20059;-73
2022/07/08 07:06:44;;;;;;;14.10;2.55;;;16.50;58.30;;;;;;5011658;28;20156;-73
2022/07/08 07:09:10;;;;;;;10.73;2.85;;;16.60;57.70;;;;;;5012053;28;20436;-75
2022/07/08 07:11:38;;;;;;;7.70;1.88;;;16.50;58.80;;;;;;5012561;28;20025;-73
2022/07/08 07:14:04;;;;;;;8.13;1.90;;;16.80;61.20;;;;;;5011968;28;20397;-75
2022/07/08 07:16:29;;;;;;;5.55;1.70;;;17.30;58.70;;;;;;5010510;28;20040;-77
2022/07/08 07:18:55;;;;;;;7.40;2.00;;;17.80;57.30;;;;;;5012698;28;20030;-77
2022/07/08 07:21:21;;;;;;;11.43;2.85;;;18.20;55.00;;;;;;5011492;28;20466;-80
2022/07/08 07:23:46;;;;;;;7.68;2.72;;;18.30;52.40;;;;;;5012009;28;20030;-81
2022/07/08 07:26:12;;;;;;;12.05;2.88;;;18.40;51.30;;;;;;5011673;28;20079;-74
2022/07/08 07:28:38;;;;;;;9.20;2.05;;;18.10;52.00;;;;;;5011893;28;20105;-79
2022/07/08 07:31:03;;;;;;;7.63;2.65;;;17.90;53.80;;;;;;5012003;28;20520;-79
2022/07/08 07:33:29;;;;;;;11.32;2.95;;;17.80;53.50;;;;;;5012205;28;20038;-80
2022/07/08 07:35:56;;;;;;;7.88;2.20;;;17.50;53.50;;;;;;5013388;28;20066;-76
2022/07/08 07:38:22;;;;;;;5.40;2.22;;;17.70;54.50;;;;;;5011914;28;20022;-74
2022/07/08 07:40:48;;;;;;;9.07;2.25;;;18.10;53.30;;;;;;5013684;28;20094;-80
2022/07/08 07:43:13;;;;;;;12.85;2.83;;;18.30;52.60;;;;;;5011457;28;20419;-81
2022/07/08 07:45:39;;;;;;;12.25;4.00;;;18.50;51.40;;;;;;5011696;28;20026;-75
2022/07/08 07:48:05;;;;;;;15.10;2.63;;;18.40;50.60;;;;;;5011794;28;20086;-77
2022/07/08 07:50:30;;;;;;;10.57;2.38;;;17.70;53.90;;;;;;5009726;28;20026;-78
2022/07/08 07:52:56;;;;;;;7.63;2.13;;;18.30;55.90;;;;;;5010244;28;20091;-75
2022/07/08 07:55:22;;;;;;;6.68;2.03;;;18.70;53.60;;;;;;5010985;28;20095;-78
2022/07/08 07:57:48;;;;;;;13.75;2.65;;;19.30;51.10;;;;;;5010946;28;20030;-76
2022/07/08 08:00:15;;;;;;;9.30;2.22;;;19.70;47.60;;;;;;5011049;28;20028;-77
2022/07/08 08:02:41;;;;;;;8.27;2.33;;;19.70;48.30;;;;;;5009355;28;20026;-73
2022/07/08 08:05:09;;;;;;;7.68;2.25;;;19.70;48.50;;;;;;5011029;28;20022;-76
2022/07/08 08:07:39;;;;;;;8.82;2.80;;;19.60;48.00;;;;;;5011202;28;20022;-75
2022/07/08 08:10:06;;;;;;;9.23;2.30;;;19.60;46.30;;;;;;5009886;28;20453;-74
2022/07/08 08:12:31;;;;;;;8.05;1.90;;;19.20;48.90;;;;;;5011145;28;20025;-72
2022/07/08 08:14:57;;;;;;;6.55;2.17;;;19.10;49.40;;;;;;5011126;28;20048;-73
2022/07/08 08:17:22;;;;;;;5.85;2.17;;;19.20;48.30;;;;;;5010873;28;20104;-73
2022/07/08 08:19:48;;;;;;;8.05;2.30;;;19.10;48.90;;;;;;5011215;28;20037;-75
2022/07/08 08:22:14;;;;;;;11.50;2.25;;;19.10;49.40;;;;;;5011068;28;20026;-76
2022/07/08 08:24:39;;;;;;;8.15;2.35;;;19.20;49.00;;;;;;5010894;28;20057;-73
2022/07/08 08:27:05;;;;;;;11.57;2.33;;;18.70;47.90;;;;;;5009805;28;20033;-73
2022/07/08 08:29:30;;;;;;;11.05;2.03;;;18.50;50.50;;;;;;5010736;28;20026;-73
2022/07/08 08:31:56;;;;;;;9.57;2.63;;;18.70;50.00;;;;;;5012933;28;20474;-75
2022/07/08 08:34:22;;;;;;;6.05;1.70;;;18.60;50.30;;;;;;5018533;28;20041;-73
2022/07/08 08:36:47;;;;;;;6.75;1.90;;;18.90;50.20;;;;;;5027313;28;20034;-75
2022/07/08 08:39:13;;;;;;;11.60;2.50;;;18.90;50.10;;;;;;5025526;28;20098;-75
2022/07/08 08:41:41;;;;;;;8.73;1.90;;;18.90;48.30;;;;;;5027036;28;20026;-74
2022/07/08 08:44:07;;;;;;;8.00;1.95;;;19.10;49.10;;;;;;5028953;28;20018;-73
2022/07/08 08:46:33;;;;;;;11.68;2.58;;;19.50;49.20;;;;;;5029848;28;20073;-74
2022/07/08 08:49:01;;;;;;;7.45;2.05;;;19.00;48.40;;;;;;5028931;28;20037;-72
2022/07/08 08:51:30;;;;;;;7.28;1.92;;;18.30;49.80;;;;;;5018441;28;20056;-73
2022/07/08 08:53:58;;;;;;;10.00;2.17;;;18.30;51.00;;;;;;5016447;28;20066;-75
2022/07/08 08:56:26;;;;;;;5.85;1.88;;;18.30;50.50;;;;;;5012016;28;20037;-74
2022/07/08 08:58:53;;;;;;;7.65;1.95;;;18.40;50.70;;;;;;5010279;28;20117;-74
2022/07/08 09:01:19;;;;;;;5.13;1.65;;;18.90;52.20;;;;;;5011191;28;20419;-74
2022/07/08 09:03:46;;;;;;;7.13;2.50;;;19.20;48.50;;;;;;5010503;28;20394;-74
2022/07/08 09:06:12;;;;;;;9.68;2.45;;;19.50;46.70;;;;;;5011226;28;20030;-74
2022/07/08 09:08:38;;;;;;;6.90;2.13;;;19.30;47.50;;;;;;5010390;28;20022;-75
2022/07/08 09:11:05;;;;;;;5.43;1.80;;;19.40;47.40;;;;;;5010643;28;20068;-73
2022/07/08 09:13:30;;;;;;;6.97;1.85;;;19.60;47.30;;;;;;5009835;28;20104;-75
2022/07/08 09:15:58;;;;;;;6.53;1.80;;;19.80;46.40;;;;;;5009455;28;20069;-74
2022/07/08 09:18:35;;;;;;;7.32;1.92;;;20.00;46.30;;;;;;5009922;28;20046;-73
2022/07/08 09:21:02;;;;;;;9.52;2.35;;;20.10;45.20;;;;;;5009498;28;20038;-79
2022/07/08 09:23:33;;;;;;;8.45;2.22;;;19.90;46.10;;;;;;5009741;28;20108;-73
2022/07/08 09:26:00;;;;;;;7.22;2.05;;;19.60;46.20;;;;;;5009660;28;20026;-73
2022/07/08 09:28:31;;;;;;;13.27;2.40;;;19.20;47.10;;;;;;5009500;28;20044;-75
2022/07/08 09:30:58;;;;;;;9.68;2.33;;;18.90;47.90;;;;;;5009306;28;20498;-73
2022/07/08 09:33:25;;;;;;;6.82;1.60;;;18.70;48.30;;;;;;5009555;28;20125;-75
2022/07/08 09:35:51;;;;;;;8.13;2.28;;;18.80;49.20;;;;;;5009571;28;20030;-75
2022/07/08 09:38:20;;;;;;;6.95;2.00;;;19.00;47.70;;;;;;5009493;28;20028;-74
2022/07/08 09:41:02;;;;;;;7.60;2.08;;;19.10;46.80;;;;;;5009264;28;20026;-75
2022/07/08 09:43:27;;;;;;;8.20;2.10;;;18.70;48.00;;;;;;5009231;28;20096;-72
2022/07/08 09:45:53;;;;;;;5.53;1.98;;;18.90;47.60;;;;;;5008940;28;20037;-72
2022/07/08 09:48:19;;;;;;;5.63;1.70;;;19.10;48.10;;;;;;5009531;28;20419;-74
2022/07/08 09:50:47;;;;;;;6.22;2.05;;;19.30;47.90;;;;;;5008973;28;20034;-72
2022/07/08 09:53:20;;;;;;;7.10;1.92;;;19.60;47.60;;;;;;5008807;28;20497;-74
2022/07/08 09:55:51;;;;;;;6.80;1.80;;;19.30;48.10;;;;;;5008972;28;20147;-79
2022/07/08 09:58:26;;;;;;;4.88;1.77;;;19.40;48.90;;;;;;5007313;28;20029;-75
2022/07/08 10:00:54;;;;;;;6.00;1.88;;;19.60;48.20;;;;;;5008948;28;20034;-73
2022/07/08 10:03:21;;;;;;;6.28;1.88;;;19.80;47.70;;;;;;5007451;28;20473;-74
2022/07/08 10:05:48;;;;;;;12.65;2.47;;;19.90;46.30;;;;;;5008516;28;20386;-72
2022/07/08 10:08:14;;;;;;;6.57;2.10;;;19.80;44.80;;;;;;5007632;28;20373;-73
2022/07/08 10:10:43;;;;;;;6.32;1.73;;;19.70;46.90;;;;;;5008574;28;20394;-74
2022/07/08 10:13:09;;;;;;;8.38;2.35;;;19.50;45.60;;;;;;5009077;28;20026;-74
2022/07/08 10:15:36;;;;;;;7.32;1.83;;;19.60;44.30;;;;;;5009948;28;20033;-74
2022/07/08 10:18:28;;;;;;;8.63;2.13;;;19.60;45.00;;;;;;5012050;28;20071;-75
2022/07/08 10:20:56;;;;;;;9.40;2.03;;;19.70;46.40;;;;;;5020016;28;20041;-72
2022/07/08 10:23:33;;;;;;;9.93;2.30;;;20.00;44.90;;;;;;5012572;28;20436;-74
2022/07/08 10:26:00;;;;;;;10.00;2.00;;;20.30;43.90;;;;;;5012172;28;20041;-75
2022/07/08 10:28:37;;;;;;;7.97;2.05;;;20.30;44.20;;;;;;5011902;28;20104;-77
2022/07/08 10:31:16;;;;;;;12.02;2.85;;;20.70;44.20;;;;;;5011863;28;20149;-73
2022/07/08 10:33:45;;;;;;;4.28;1.40;;;20.80;42.30;;;;;;5012102;28;20022;-78
2022/07/08 10:36:12;;;;;;;10.50;2.30;;;20.90;42.20;;;;;;5012301;28;20504;-76
2022/07/08 10:38:39;;;;;;;4.85;1.75;;;20.60;42.00;;;;;;5012341;28;20395;-77
2022/07/08 10:41:21;;;;;;;7.40;1.60;;;20.60;41.00;;;;;;5011647;28;20032;-73
2022/07/08 10:43:55;;;;;;;11.25;2.38;;;20.50;42.80;;;;;;5010701;28;20022;-73
2022/07/08 10:46:24;;;;;;;9.43;2.00;;;20.50;41.80;;;;;;5012099;28;20026;-76
2022/07/08 10:48:54;;;;;;;7.82;1.80;;;20.70;42.20;;;;;;5011543;28;20030;-79
2022/07/08 10:51:20;;;;;;;7.03;1.77;;;21.10;43.60;;;;;;5011663;28;20033;-75
2022/07/08 10:53:59;;;;;;;8.52;1.98;;;21.50;39.80;;;;;;5011689;28;20030;-79
2022/07/08 10:56:44;;;;;;;5.40;1.25;;;21.60;39.40;;;;;;5011800;28;20026;-74
2022/07/08 10:59:26;;;;;;;7.28;1.50;;;21.60;38.80;;;;;;5011606;28;20029;-77
2022/07/08 11:02:12;;;;;;;8.05;2.20;;;21.70;38.70;;;;;;5011676;28;20075;-77
2022/07/08 11:04:37;;;;;;;8.93;1.90;;;21.40;39.30;;;;;;5012145;28;20778;-75
2022/07/08 11:07:20;;;;;;;10.23;3.00;;;21.60;41.00;;;;;;5011122;28;20037;-74
2022/07/08 11:09:47;;;;;;;6.60;1.17;;;22.00;39.30;;;;;;5011614;28;20036;-74
2022/07/08 11:12:25;;;;;;;4.65;1.40;;;22.20;38.20;;;;;;5011401;28;20030;-75
2022/07/08 11:14:53;;;;;;;8.10;1.92;;;22.50;35.90;;;;;;5011368;28;20044;-80
2022/07/08 11:17:21;;;;;;;7.30;1.67;;;22.10;35.90;;;;;;5011325;28;20373;-80
2022/07/08 11:19:49;;;;;;;5.43;1.50;;;22.00;37.50;;;;;;5009976;28;20387;-75
2022/07/08 11:22:15;;;;;;;8.38;1.50;;;22.30;37.90;;;;;;5011359;28;20045;-76
2022/07/08 11:25:07;;;;;;;7.63;1.98;;;22.60;37.20;;;;;;5011658;28;20022;-82
2022/07/08 11:27:33;;;;;;;7.20;1.40;;;22.50;36.10;;;;;;5018053;28;20083;-77
2022/07/08 11:30:02;;;;;;;12.20;1.90;;;22.20;37.20;;;;;;5011749;28;20054;-79
2022/07/08 11:32:28;;;;;;;4.35;1.55;;;22.60;37.20;;;;;;5010664;28;20086;-78
2022/07/08 11:34:55;;;;;;;5.47;1.40;;;22.80;36.00;;;;;;5012105;28;20041;-75
2022/07/08 11:37:22;;;;;;;6.45;1.65;;;23.10;35.00;;;;;;5012042;28;20034;-74
2022/07/08 11:39:48;;;;;;;7.72;1.30;;;23.30;34.70;;;;;;5011316;28;20510;-75
2022/07/08 11:42:15;;;;;;;12.05;1.70;;;23.40;33.40;;;;;;5010965;28;20033;-79
2022/07/08 11:44:42;;;;;;;6.90;1.48;;;23.40;32.60;;;;;;5011823;28;20067;-78
2022/07/08 11:47:15;;;;;;;5.85;1.63;;;23.10;32.90;;;;;;5010786;28;20052;-76
2022/07/08 11:49:44;;;;;;;4.43;1.58;;;23.00;33.20;;;;;;5011665;28;20489;-77
2022/07/08 11:52:10;;;;;;;7.07;1.77;;;22.70;34.10;;;;;;5011819;28;20018;-81
2022/07/08 11:54:36;;;;;;;9.52;1.73;;;22.20;35.40;;;;;;5011233;28;20211;-78
2022/07/08 11:57:03;;;;;;;6.47;1.80;;;22.40;37.40;;;;;;5011615;28;20116;-75
2022/07/08 11:59:31;;;;;;;6.82;1.42;;;22.70;36.30;;;;;;5010972;28;20026;-80
2022/07/08 12:01:59;;;;;;;7.80;1.80;;;23.00;35.70;;;;;;5012009;28;20030;-77
2022/07/08 12:04:25;;;;;;;5.80;1.60;;;22.90;34.50;;;;;;5010875;28;20026;-75
2022/07/08 12:06:53;;;;;;;5.38;1.45;;;23.00;34.00;;;;;;5011585;28;20126;-83
2022/07/08 12:09:21;;;;;;;3.00;1.17;;;22.80;35.20;;;;;;5012866;28;20026;-77
2022/07/08 12:11:51;;;;;;;8.32;1.83;;;23.00;35.40;;;;;;5011897;28;20022;-75
2022/07/08 12:14:17;;;;;;;6.40;1.30;;;23.00;35.10;;;;;;5011885;28;20083;-77
2022/07/08 12:16:49;;;;;;;6.70;1.70;;;23.00;34.90;;;;;;5011108;28;20071;-80
2022/07/08 12:19:37;;;;;;;7.95;1.52;;;23.20;34.20;;;;;;5011984;28;20030;-73
2022/07/08 12:22:13;;;;;;;5.28;1.42;;;23.30;33.00;;;;;;5009927;28;20382;-75
2022/07/08 12:24:41;;;;;;;3.92;1.25;;;23.40;34.10;;;;;;5009877;28;20062;-82
2022/07/08 12:27:07;;;;;;;9.15;1.95;;;23.70;33.40;;;;;;4994156;28;20026;-77
2022/07/08 12:29:36;;;;;;;9.15;1.98;;;23.60;33.10;;;;;;5009788;28;20030;-80
2022/07/08 12:32:03;;;;;;;6.72;1.63;;;23.50;33.40;;;;;;5010731;28;20042;-81
2022/07/08 12:34:32;;;;;;;5.75;1.65;;;23.70;32.60;;;;;;5014428;28;20402;-77
2022/07/08 12:37:14;;;;;;;4.75;1.20;;;23.80;32.30;;;;;;5017459;28;20036;-76
2022/07/08 12:39:41;;;;;;;7.50;1.63;;;23.40;31.20;;;;;;5013776;28;20132;-76
2022/07/08 12:42:07;;;;;;;6.78;1.80;;;23.50;32.40;;;;;;5015263;28;20031;-81
2022/07/08 12:44:48;;;;;;;7.80;1.92;;;23.80;32.50;;;;;;5011174;28;20112;-77
2022/07/08 12:47:14;;;;;;;6.43;1.20;;;23.80;31.00;;;;;;5012682;28;20482;-78
2022/07/08 12:49:48;;;;;;;6.38;1.63;;;23.80;32.60;;;;;;5012208;28;20025;-76